createdAt,value
2017-06-01T00:01:58.460Z,21.49
2017-06-01T00:04:26.296Z,21.77
2017-06-01T00:06:54.187Z,21.98
2017-06-01T00:09:21.829Z,21.89
2017-06-01T00:11:49.427Z,21.79
2017-06-01T00:14:17.306Z,21.77
2017-06-01T00:16:45.479Z,21.77
2017-06-01T00:19:13.068Z,21.65
2017-06-01T00:21:40.766Z,21.37
2017-06-01T00:24:08.421Z,21.20
2017-06-01T00:26:36.274Z,21.67
2017-06-01T00:29:03.924Z,21.62
2017-06-01T00:31:31.559Z,21.60
2017-06-01T00:33:59.114Z,21.43
2017-06-01T00:36:26.674Z,21.44
2017-06-01T00:38:54.272Z,21.41
2017-06-01T00:41:21.836Z,21.49
2017-06-01T00:43:49.671Z,21.16
2017-06-01T00:46:17.286Z,21.18
2017-06-01T00:48:44.849Z,21.57
2017-06-01T00:51:12.411Z,21.31
2017-06-01T00:53:40.020Z,21.43
2017-06-01T00:56:07.830Z,21.35
2017-06-01T00:58:35.410Z,21.15
2017-06-01T01:01:03.098Z,20.99
2017-06-01T01:03:30.678Z,21.15
2017-06-01T01:05:58.243Z,21.36
2017-06-01T01:08:25.830Z,21.30
2017-06-01T01:10:53.401Z,21.23
2017-06-01T01:13:20.964Z,21.33
2017-06-01T01:15:48.550Z,21.32
2017-06-01T01:18:16.102Z,21.27
2017-06-01T01:20:43.685Z,21.12
2017-06-01T01:23:11.536Z,21.18
2017-06-01T01:25:39.105Z,21.08
2017-06-01T01:28:06.958Z,21.16
2017-06-01T01:30:34.723Z,21.26
2017-06-01T01:33:02.283Z,21.16
2017-06-01T01:35:30.118Z,21.15
2017-06-01T01:37:57.730Z,21.14
2017-06-01T01:40:25.292Z,20.97
2017-06-01T01:42:52.863Z,20.75
2017-06-01T01:45:20.460Z,20.70
2017-06-01T01:47:48.040Z,20.81
2017-06-01T01:50:15.887Z,20.87
2017-06-01T01:52:43.532Z,20.88
2017-06-01T01:55:11.180Z,20.97
2017-06-01T01:57:38.766Z,20.86
2017-06-01T02:00:06.674Z,20.84
2017-06-01T02:02:34.271Z,20.74
2017-06-01T02:05:01.950Z,20.89
2017-06-01T02:07:29.638Z,20.90
2017-06-01T02:09:57.223Z,20.75
2017-06-01T02:12:25.067Z,20.61
2017-06-01T02:14:52.720Z,20.68
2017-06-01T02:17:20.570Z,20.55
2017-06-01T02:19:48.169Z,20.63
2017-06-01T02:22:15.818Z,20.68
2017-06-01T02:24:43.653Z,20.69
2017-06-01T02:27:11.232Z,20.78
2017-06-01T02:29:38.854Z,20.68
2017-06-01T02:32:06.501Z,20.72
2017-06-01T02:34:34.090Z,20.68
2017-06-01T02:37:01.678Z,20.60
2017-06-01T02:39:29.345Z,20.40
2017-06-01T02:41:56.902Z,20.49
2017-06-01T02:44:24.502Z,20.39
2017-06-01T02:46:52.243Z,20.42
2017-06-01T02:49:19.986Z,20.40
2017-06-01T02:51:47.608Z,20.36
2017-06-01T02:54:15.273Z,20.48
2017-06-01T02:56:42.870Z,20.41
2017-06-01T02:59:10.480Z,20.25
2017-06-01T03:01:38.099Z,20.38
2017-06-01T03:04:05.729Z,20.28
2017-06-01T03:06:33.594Z,20.37
2017-06-01T03:09:01.195Z,20.22
2017-06-01T03:11:28.989Z,20.15
2017-06-01T03:14:03.803Z,19.94
2017-06-01T03:16:31.399Z,20.09
2017-06-01T03:18:58.974Z,20.19
2017-06-01T03:21:27.282Z,19.99
2017-06-01T03:23:54.883Z,20.12
2017-06-01T03:26:22.485Z,20.11
2017-06-01T03:28:50.147Z,20.11
2017-06-01T03:31:18.024Z,20.27
2017-06-01T03:33:45.594Z,20.39
2017-06-01T03:36:13.201Z,20.28
2017-06-01T03:38:40.880Z,20.36
2017-06-01T03:41:08.803Z,20.48
2017-06-01T03:43:36.413Z,20.48
2017-06-01T03:46:04.047Z,20.56
2017-06-01T03:48:31.675Z,20.47
2017-06-01T03:50:59.249Z,20.32
2017-06-01T03:53:26.860Z,20.45
2017-06-01T03:55:54.494Z,20.56
2017-06-01T03:58:22.078Z,20.63
2017-06-01T04:00:49.750Z,20.61
2017-06-01T04:03:17.373Z,20.67
2017-06-01T04:05:44.998Z,20.64
2017-06-01T04:08:12.675Z,20.68
2017-06-01T04:10:40.439Z,20.64
2017-06-01T04:13:08.042Z,20.68
2017-06-01T04:15:35.711Z,20.81
2017-06-01T04:18:03.637Z,20.90
2017-06-01T04:20:31.266Z,20.89
2017-06-01T04:22:58.877Z,21.04
2017-06-01T04:25:26.518Z,21.13
2017-06-01T04:27:54.077Z,20.96
2017-06-01T04:30:21.786Z,20.99
2017-06-01T04:32:49.364Z,21.14
2017-06-01T04:35:16.960Z,21.24
2017-06-01T04:37:45.075Z,21.04
2017-06-01T04:40:12.639Z,21.12
2017-06-01T04:42:40.183Z,21.39
2017-06-01T04:45:07.831Z,21.43
2017-06-01T04:47:35.409Z,21.53
2017-06-01T04:50:02.975Z,21.59
2017-06-01T04:52:30.566Z,21.60
2017-06-01T04:54:58.117Z,21.72
2017-06-01T04:57:25.771Z,21.58
2017-06-01T04:59:53.359Z,21.58
2017-06-01T05:02:20.957Z,21.80
2017-06-01T05:04:48.522Z,21.97
2017-06-01T05:07:16.068Z,21.83
2017-06-01T05:09:43.658Z,21.87
2017-06-01T05:12:11.237Z,21.73
2017-06-01T05:14:38.800Z,22.02
2017-06-01T05:17:06.408Z,21.95
2017-06-01T05:19:33.967Z,21.94
2017-06-01T05:22:01.521Z,21.89
2017-06-01T05:24:29.109Z,21.97
2017-06-01T05:26:56.660Z,22.11
2017-06-01T05:29:24.227Z,22.24
2017-06-01T05:31:51.814Z,22.32
2017-06-01T05:34:19.374Z,22.37
2017-06-01T05:36:46.924Z,22.68
2017-06-01T05:39:14.525Z,22.90
2017-06-01T05:41:42.077Z,22.82
2017-06-01T05:44:09.642Z,23.09
2017-06-01T05:46:37.290Z,23.25
2017-06-01T05:49:04.847Z,23.32
2017-06-01T05:51:32.419Z,23.53
2017-06-01T05:54:00.005Z,23.41
2017-06-01T05:56:27.561Z,23.68
2017-06-01T05:58:55.117Z,23.92
2017-06-01T06:01:22.782Z,24.06
2017-06-01T06:03:53.866Z,24.26
2017-06-01T06:06:21.413Z,24.44
2017-06-01T06:08:49.025Z,24.55
2017-06-01T06:11:16.599Z,24.67
2017-06-01T06:13:44.141Z,24.28
2017-06-01T06:16:11.719Z,23.83
2017-06-01T06:18:39.271Z,24.17
2017-06-01T06:21:06.885Z,24.65
2017-06-01T06:23:34.491Z,24.94
2017-06-01T06:26:02.079Z,25.11
2017-06-01T06:28:29.660Z,25.26
2017-06-01T06:30:57.432Z,25.33
2017-06-01T06:33:24.974Z,25.63
2017-06-01T06:35:52.513Z,25.35
2017-06-01T06:38:20.099Z,25.35
2017-06-01T06:40:47.881Z,25.86
2017-06-01T06:43:15.438Z,25.91
2017-06-01T06:45:43.036Z,26.19
2017-06-01T06:48:10.598Z,26.42
2017-06-01T06:50:38.145Z,26.26
2017-06-01T06:53:05.811Z,26.03
2017-06-01T06:55:33.371Z,26.12
2017-06-01T06:58:00.929Z,26.31
2017-06-01T07:00:28.614Z,26.63
2017-06-01T07:02:56.171Z,26.19
2017-06-01T07:05:23.754Z,26.19
2017-06-01T07:07:51.354Z,26.43
2017-06-01T07:10:18.913Z,26.64
2017-06-01T07:12:46.473Z,26.64
2017-06-01T07:15:14.058Z,26.61
2017-06-01T07:17:41.611Z,26.94
2017-06-01T07:20:09.167Z,26.86
2017-06-01T07:22:36.750Z,26.88
2017-06-01T07:25:04.329Z,26.99
2017-06-01T07:27:31.877Z,27.17
2017-06-01T07:29:59.457Z,27.25
2017-06-01T07:32:27.094Z,27.31
2017-06-01T07:34:54.655Z,27.40
2017-06-01T07:37:22.211Z,27.42
2017-06-01T07:39:49.795Z,27.44
2017-06-01T07:42:17.344Z,27.76
2017-06-01T07:44:44.898Z,27.66
2017-06-01T07:47:12.498Z,27.92
2017-06-01T07:49:40.046Z,27.99
2017-06-01T07:52:07.592Z,28.06
2017-06-01T07:54:35.183Z,28.08
2017-06-01T07:57:02.734Z,28.21
2017-06-01T07:59:30.311Z,28.21
2017-06-01T08:01:57.934Z,28.29
2017-06-01T08:04:25.504Z,28.36
2017-06-01T08:06:53.056Z,28.35
2017-06-01T08:09:20.652Z,28.48
2017-06-01T08:11:48.210Z,28.53
2017-06-01T08:14:15.796Z,28.73
2017-06-01T08:16:44.174Z,28.99
2017-06-01T08:19:11.732Z,28.91
2017-06-01T08:21:39.285Z,28.90
2017-06-01T08:24:06.878Z,29.12
2017-06-01T08:26:34.433Z,29.23
2017-06-01T08:29:02.006Z,29.25
2017-06-01T08:31:29.602Z,29.35
2017-06-01T08:33:57.158Z,29.51
2017-06-01T08:36:24.713Z,29.44
2017-06-01T08:38:52.289Z,29.58
2017-06-01T08:41:19.836Z,29.74
2017-06-01T08:43:47.390Z,29.50
2017-06-01T08:46:14.982Z,29.61
2017-06-01T08:48:42.548Z,29.88
2017-06-01T08:51:10.107Z,30.10
2017-06-01T08:53:37.687Z,29.89
2017-06-01T08:56:05.647Z,29.76
2017-06-01T08:58:33.189Z,29.98
2017-06-01T09:01:00.834Z,29.89
2017-06-01T09:03:28.375Z,30.22
2017-06-01T09:05:55.927Z,30.19
2017-06-01T09:08:23.529Z,30.39
2017-06-01T09:10:51.078Z,30.28
2017-06-01T09:13:18.635Z,30.45
2017-06-01T09:15:46.214Z,30.27
2017-06-01T09:18:13.765Z,30.55
2017-06-01T09:20:41.331Z,30.54
2017-06-01T09:23:08.923Z,30.45
2017-06-01T09:25:36.474Z,30.48
2017-06-01T09:28:04.022Z,30.43
2017-06-01T09:30:31.621Z,30.75
2017-06-01T09:32:59.166Z,30.61
2017-06-01T09:35:26.721Z,30.71
2017-06-01T09:37:54.303Z,30.55
2017-06-01T09:40:21.850Z,30.75
2017-06-01T09:42:49.402Z,30.90
2017-06-01T09:45:16.974Z,30.89
2017-06-01T09:47:44.528Z,30.76
2017-06-01T09:50:12.074Z,31.01
2017-06-01T09:52:39.662Z,31.18
2017-06-01T09:55:07.233Z,31.32
2017-06-01T09:57:34.818Z,31.33
2017-06-01T10:00:09.926Z,31.37
2017-06-01T10:02:37.519Z,31.11
2017-06-01T10:05:05.072Z,31.12
2017-06-01T10:07:32.622Z,31.23
2017-06-01T10:10:00.208Z,31.06
2017-06-01T10:12:27.742Z,31.24
2017-06-01T10:14:55.286Z,31.52
2017-06-01T10:17:22.870Z,31.52
2017-06-01T10:19:50.405Z,31.18
2017-06-01T10:22:17.959Z,31.35
2017-06-01T10:24:45.540Z,31.75
2017-06-01T10:27:13.087Z,31.66
2017-06-01T10:29:40.637Z,31.49
2017-06-01T10:32:08.254Z,31.66
2017-06-01T10:34:35.798Z,31.97
2017-06-01T10:37:03.350Z,31.63
2017-06-01T10:39:30.970Z,31.71
2017-06-01T10:41:58.516Z,31.73
2017-06-01T10:44:26.058Z,31.51
2017-06-01T10:46:53.634Z,30.87
2017-06-01T10:49:21.178Z,30.85
2017-06-01T10:51:48.740Z,31.53
2017-06-01T10:54:17.139Z,31.60
2017-06-01T10:56:44.694Z,31.64
2017-06-01T10:59:12.231Z,31.85
2017-06-01T11:01:40.041Z,31.95
2017-06-01T11:04:07.606Z,32.03
2017-06-01T11:06:35.162Z,31.94
2017-06-01T11:09:02.761Z,31.99
2017-06-01T11:11:30.304Z,31.31
2017-06-01T11:13:57.862Z,31.65
2017-06-01T11:16:25.472Z,31.92
2017-06-01T11:18:53.029Z,32.09
2017-06-01T11:21:20.570Z,32.06
2017-06-01T11:23:48.167Z,31.81
2017-06-01T11:26:15.726Z,31.83
2017-06-01T11:28:43.270Z,31.99
2017-06-01T11:31:10.966Z,32.06
2017-06-01T11:33:38.506Z,31.97
2017-06-01T11:36:06.173Z,31.96
2017-06-01T11:38:33.751Z,31.99
2017-06-01T11:41:01.301Z,32.14
2017-06-01T11:43:28.847Z,32.32
2017-06-01T11:45:56.429Z,32.31
2017-06-01T11:48:23.971Z,31.99
2017-06-01T11:50:51.513Z,31.81
2017-06-01T11:53:19.100Z,31.53
2017-06-01T11:55:46.650Z,31.66
2017-06-01T11:58:14.265Z,31.72
2017-06-01T12:00:42.019Z,31.57
2017-06-01T12:03:09.579Z,31.60
2017-06-01T12:05:37.126Z,31.58
2017-06-01T12:08:04.751Z,31.82
2017-06-01T12:10:32.322Z,31.56
2017-06-01T12:12:59.902Z,31.36
2017-06-01T12:15:27.487Z,31.13
2017-06-01T12:17:55.042Z,31.42
2017-06-01T12:20:22.606Z,31.50
2017-06-01T12:22:50.204Z,31.50
2017-06-01T12:25:17.825Z,30.96
2017-06-01T12:27:48.111Z,31.14
2017-06-01T12:30:15.909Z,31.41
2017-06-01T12:32:43.454Z,31.58
2017-06-01T12:35:11.031Z,31.57
2017-06-01T12:37:38.620Z,31.32
2017-06-01T12:40:06.163Z,31.44
2017-06-01T12:42:33.715Z,31.50
2017-06-01T12:45:02.157Z,31.38
2017-06-01T12:47:29.715Z,31.15
2017-06-01T12:49:57.262Z,31.04
2017-06-01T12:52:24.841Z,31.29
2017-06-01T12:54:52.387Z,31.43
2017-06-01T12:57:19.938Z,31.50
2017-06-01T13:00:06.369Z,31.52
2017-06-01T13:02:33.907Z,31.35
2017-06-01T13:05:01.454Z,31.45
2017-06-01T13:07:29.030Z,31.53
2017-06-01T13:09:56.585Z,31.53
2017-06-01T13:12:24.151Z,31.47
2017-06-01T13:14:51.736Z,31.38
2017-06-01T13:17:19.296Z,31.41
2017-06-01T13:19:46.851Z,31.43
2017-06-01T13:22:14.446Z,31.27
2017-06-01T13:24:42.052Z,31.28
2017-06-01T13:27:09.590Z,31.43
2017-06-01T13:29:37.189Z,31.37
2017-06-01T13:32:04.783Z,31.22
2017-06-01T13:34:32.337Z,31.11
2017-06-01T13:36:59.881Z,30.98
2017-06-01T13:39:27.472Z,30.96
2017-06-01T13:41:55.018Z,31.13
2017-06-01T13:44:22.566Z,31.05
2017-06-01T13:46:50.937Z,31.03
2017-06-01T13:49:18.482Z,31.01
2017-06-01T13:51:46.035Z,30.99
2017-06-01T13:54:13.615Z,31.00
2017-06-01T13:56:41.504Z,30.94
2017-06-01T13:59:09.143Z,30.95
2017-06-01T14:01:36.731Z,30.91
2017-06-01T14:04:04.275Z,30.82
2017-06-01T14:06:31.832Z,30.76
2017-06-01T14:08:59.415Z,30.78
2017-06-01T14:11:26.964Z,30.78
2017-06-01T14:13:54.518Z,30.87
2017-06-01T14:16:22.098Z,30.74
2017-06-01T14:18:49.645Z,30.81
2017-06-01T14:21:17.254Z,30.90
2017-06-01T14:23:44.999Z,30.74
2017-06-01T14:26:12.552Z,30.57
2017-06-01T14:28:40.107Z,30.61
2017-06-01T14:31:07.746Z,30.49
2017-06-01T14:33:35.351Z,30.60
2017-06-01T14:36:03.160Z,30.64
2017-06-01T14:38:30.742Z,30.62
2017-06-01T14:40:58.286Z,30.54
2017-06-01T14:43:25.896Z,30.65
2017-06-01T14:45:57.423Z,30.47
2017-06-01T14:48:24.999Z,30.51
2017-06-01T14:50:52.598Z,30.29
2017-06-01T14:53:20.198Z,30.21
2017-06-01T14:55:47.751Z,30.32
2017-06-01T14:58:15.298Z,30.14
2017-06-01T15:00:42.923Z,30.15
2017-06-01T15:03:10.487Z,30.11
2017-06-01T15:05:38.326Z,30.06
2017-06-01T15:08:05.920Z,29.84
2017-06-01T15:10:33.472Z,29.90
2017-06-01T15:13:01.103Z,29.91
2017-06-01T15:15:28.686Z,29.96
2017-06-01T15:17:56.512Z,29.80
2017-06-01T15:20:24.073Z,29.65
2017-06-01T15:22:52.259Z,29.46
2017-06-01T15:25:20.657Z,29.43
2017-06-01T15:27:48.209Z,29.42
2017-06-01T15:30:15.940Z,29.11
2017-06-01T15:32:43.502Z,29.28
2017-06-01T15:35:11.059Z,29.40
2017-06-01T15:37:38.647Z,29.22
2017-06-01T15:40:06.207Z,28.97
2017-06-01T15:42:33.776Z,28.97
2017-06-01T15:45:01.447Z,28.98
2017-06-01T15:47:28.998Z,28.94
2017-06-01T15:49:56.553Z,29.04
2017-06-01T15:52:24.160Z,28.96
2017-06-01T15:54:51.719Z,28.97
2017-06-01T15:57:19.267Z,28.96
2017-06-01T15:59:46.861Z,28.93
2017-06-01T16:02:14.815Z,28.75
2017-06-01T16:04:42.446Z,28.97
2017-06-01T16:07:10.441Z,28.91
2017-06-01T16:09:38.147Z,29.02
2017-06-01T16:12:05.722Z,28.89
2017-06-01T16:14:33.308Z,28.85
2017-06-01T16:17:01.454Z,28.88
2017-06-01T16:19:29.029Z,28.74
2017-06-01T16:21:57.206Z,28.62
2017-06-01T16:24:25.146Z,28.52
2017-06-01T16:26:53.355Z,28.44
2017-06-01T16:29:21.491Z,28.56
2017-06-01T16:31:49.111Z,28.43
2017-06-01T16:34:16.674Z,28.21
2017-06-01T16:36:44.874Z,28.29
2017-06-01T16:39:12.690Z,28.21
2017-06-01T16:41:40.350Z,28.19
2017-06-01T16:44:09.023Z,28.19
2017-06-01T16:46:36.637Z,28.06
2017-06-01T16:49:04.447Z,27.98
2017-06-01T16:51:32.035Z,27.72
2017-06-01T16:53:59.640Z,27.73
2017-06-01T16:56:28.171Z,27.65
2017-06-01T16:58:55.764Z,27.59
2017-06-01T17:01:23.381Z,27.57
2017-06-01T17:03:51.347Z,27.67
2017-06-01T17:06:19.044Z,27.63
2017-06-01T17:08:46.653Z,27.62
2017-06-01T17:11:14.225Z,27.52
2017-06-01T17:13:41.815Z,27.43
2017-06-01T17:16:10.373Z,27.62
2017-06-01T17:18:38.031Z,27.64
2017-06-01T17:21:05.974Z,27.57
2017-06-01T17:23:34.522Z,27.42
2017-06-01T17:26:02.326Z,27.28
2017-06-01T17:28:29.879Z,27.25
2017-06-01T17:30:57.586Z,26.92
2017-06-01T17:33:25.145Z,26.84
2017-06-01T17:35:52.710Z,26.90
2017-06-01T17:38:20.306Z,26.85
2017-06-01T17:40:47.901Z,26.69
2017-06-01T17:43:15.450Z,26.70
2017-06-01T17:45:43.050Z,26.81
2017-06-01T17:48:10.626Z,26.60
2017-06-01T17:50:38.184Z,26.54
2017-06-01T17:53:05.803Z,26.63
2017-06-01T17:55:33.358Z,26.53
2017-06-01T17:58:02.082Z,26.45
2017-06-01T18:00:29.825Z,26.33
2017-06-01T18:02:58.296Z,26.52
2017-06-01T18:05:25.847Z,26.29
2017-06-01T18:07:54.294Z,26.37
2017-06-01T18:10:21.886Z,26.59
2017-06-01T18:12:49.448Z,26.53
2017-06-01T18:15:17.078Z,26.45
2017-06-01T18:17:44.635Z,26.40
2017-06-01T18:20:12.198Z,26.46
2017-06-01T18:22:39.817Z,26.44
2017-06-01T18:25:07.382Z,26.12
2017-06-01T18:27:34.936Z,26.31
2017-06-01T18:30:02.551Z,26.22
2017-06-01T18:32:30.144Z,26.15
2017-06-01T18:34:57.975Z,26.05
2017-06-01T18:37:25.543Z,25.91
2017-06-01T18:39:53.222Z,25.96
2017-06-01T18:42:21.033Z,25.95
2017-06-01T18:44:48.606Z,25.91
2017-06-01T18:47:16.218Z,25.69
2017-06-01T18:49:43.779Z,25.72
2017-06-01T18:52:11.354Z,25.74
2017-06-01T18:54:38.948Z,25.69
2017-06-01T18:57:06.511Z,25.66
2017-06-01T18:59:34.062Z,25.72
2017-06-01T19:02:01.698Z,25.73
2017-06-01T19:04:29.486Z,25.62
2017-06-01T19:06:57.047Z,25.66
2017-06-01T19:09:24.651Z,25.66
2017-06-01T19:11:52.200Z,25.66
2017-06-01T19:14:19.763Z,25.69
2017-06-01T19:16:47.358Z,25.63
2017-06-01T19:19:14.925Z,25.45
2017-06-01T19:21:42.504Z,25.67
2017-06-01T19:24:10.148Z,25.79
2017-06-01T19:26:37.704Z,25.54
2017-06-01T19:29:05.272Z,25.57
2017-06-01T19:31:32.897Z,25.56
2017-06-01T19:34:00.450Z,25.58
2017-06-01T19:36:28.037Z,25.55
2017-06-01T19:38:55.626Z,25.54
2017-06-01T19:41:23.186Z,25.65
2017-06-01T19:43:51.002Z,25.61
2017-06-01T19:46:18.596Z,25.62
2017-06-01T19:48:46.155Z,25.57
2017-06-01T19:51:13.707Z,25.54
2017-06-01T19:53:41.312Z,25.56
2017-06-01T19:56:08.866Z,25.40
2017-06-01T19:58:36.421Z,25.44
2017-06-01T20:01:04.023Z,25.49
2017-06-01T20:03:31.837Z,25.30
2017-06-01T20:05:59.400Z,25.35
2017-06-01T20:08:26.986Z,25.36
2017-06-01T20:10:54.546Z,25.35
2017-06-01T20:13:22.113Z,25.43
2017-06-01T20:15:49.732Z,25.34
2017-06-01T20:18:17.559Z,25.39
2017-06-01T20:20:45.380Z,25.38
2017-06-01T20:23:12.966Z,25.35
2017-06-01T20:25:40.553Z,25.30
2017-06-01T20:28:08.170Z,25.24
2017-06-01T20:30:35.755Z,25.17
2017-06-01T20:33:03.315Z,25.17
2017-06-01T20:35:30.873Z,25.14
2017-06-01T20:37:59.090Z,25.05
2017-06-01T20:40:26.651Z,25.00
2017-06-01T20:42:54.206Z,25.00
2017-06-01T20:45:22.780Z,24.79
2017-06-01T20:47:50.343Z,25.01
2017-06-01T20:50:17.889Z,25.00
2017-06-01T20:52:45.500Z,24.82
2017-06-01T20:55:13.526Z,24.81
2017-06-01T20:57:41.139Z,24.73
2017-06-01T21:00:08.891Z,24.58
2017-06-01T21:02:36.443Z,24.69
2017-06-01T21:05:04.288Z,24.82
2017-06-01T21:07:31.917Z,24.82
2017-06-01T21:09:59.475Z,24.72
2017-06-01T21:12:27.031Z,24.75
2017-06-01T21:14:56.014Z,24.66
2017-06-01T21:17:25.445Z,24.62
2017-06-01T21:19:53.053Z,24.51
2017-06-01T21:22:23.147Z,24.60
2017-06-01T21:24:52.280Z,24.58
2017-06-01T21:27:21.563Z,24.54
2017-06-01T21:29:50.299Z,24.58
2017-06-01T21:32:18.679Z,24.53
2017-06-01T21:34:46.236Z,24.44
2017-06-01T21:37:13.798Z,24.42
2017-06-01T21:39:42.261Z,24.48
2017-06-01T21:42:10.635Z,24.43
2017-06-01T21:44:40.011Z,24.40
2017-06-01T21:47:07.655Z,24.34
2017-06-01T21:49:35.203Z,24.35
2017-06-01T21:52:02.772Z,24.26
2017-06-01T21:54:30.373Z,24.23
2017-06-01T21:56:57.951Z,24.21
2017-06-01T21:59:25.511Z,24.19
2017-06-01T22:01:53.116Z,24.23
2017-06-01T22:04:20.681Z,24.18
2017-06-01T22:06:48.241Z,24.13
2017-06-01T22:09:15.890Z,24.18
2017-06-01T22:11:43.445Z,24.26
2017-06-01T22:14:10.989Z,24.26
2017-06-01T22:16:38.846Z,24.22
2017-06-01T22:19:06.401Z,24.31
2017-06-01T22:21:34.186Z,24.14
2017-06-01T22:24:02.587Z,24.24
2017-06-01T22:26:31.493Z,24.03
2017-06-01T22:29:04.660Z,24.24
2017-06-01T22:31:38.285Z,24.44
2017-06-01T22:34:09.026Z,24.44
2017-06-01T22:36:39.329Z,24.43
2017-06-01T22:39:09.116Z,24.41
2017-06-01T22:41:40.297Z,24.38
2017-06-01T22:44:10.092Z,24.34
2017-06-01T22:46:39.301Z,24.33
2017-06-01T22:49:09.640Z,24.33
2017-06-01T22:51:39.195Z,24.26
2017-06-01T22:54:08.219Z,24.34
2017-06-01T22:56:37.183Z,24.26
2017-06-01T22:59:06.205Z,24.34
2017-06-01T23:01:35.297Z,24.16
2017-06-01T23:04:02.943Z,24.10
2017-06-01T23:06:30.487Z,24.16
2017-06-01T23:08:58.081Z,24.09
2017-06-01T23:11:25.638Z,23.96
2017-06-01T23:13:53.443Z,23.99
2017-06-01T23:16:25.630Z,24.07
2017-06-01T23:19:07.663Z,24.17
2017-06-01T23:21:35.254Z,24.08
2017-06-01T23:24:02.911Z,24.06
2017-06-01T23:26:30.470Z,24.06
2017-06-01T23:28:58.071Z,24.01
2017-06-01T23:31:25.685Z,24.01
2017-06-01T23:33:53.287Z,24.07
2017-06-01T23:36:20.844Z,24.07
2017-06-01T23:38:48.427Z,24.00
2017-06-01T23:41:16.006Z,23.84
2017-06-01T23:43:46.087Z,23.89
2017-06-01T23:46:14.043Z,23.72
2017-06-01T23:48:41.601Z,23.65
2017-06-01T23:51:09.203Z,23.67
2017-06-01T23:53:36.822Z,23.70
2017-06-01T23:56:04.382Z,23.70
2017-06-01T23:58:31.942Z,23.74
